Marion, IL (62959)

10:57 PM CDT on June 29, 2015 (GMT -0500)
WB0VTM - HAM RADIO | | Change Station
CLOSE
Current Station
Personal Weather Station
Location: Marion, IL
Elevation: 492 ft
Nearby Weather Stations
Active Advisory: Flood Warning

Elev 492 ft 37.72 °N, 88.95 °W | Updated 29 minutes ago

Partly Cloudy
Partly Cloudy
74.1 °F
Feels Like 70 °F
N
0.0
Wind Variable Wind from South

Today
High -- | Low -- °F
--% Chance of Precip.
Yesterday
High -- | Low -- °F
Precip. -- in
5:36 AM 8:21 PM
Waxing Gibbous, 95% visible
Pressure 29.89 in
Visibility 10.0 miles
Clouds Scattered Clouds 10000 ft
Heat Index 70 °F
Dew Point 74 °F
Humidity 99%
Rainfall in
Snow Depth Not available.
UV 0 out of 12
Pollen 4.50 out of 12
Air Quality Not available.
Flu Activity Sporadic
METAR KMWA 300315Z AUTO 00000KT 10SM SCT100 22/20 A2989 RMK AO2

More Conditions Fewer Conditions

Pressure 29.89 in
Visibility 10.0 miles
Clouds Scattered Clouds 10000 ft
Heat Index 70 °F
Dew Point 74 °F
Humidity 99%
Rainfall in
Snow Depth Not available.
UV 0 out of 12
Pollen 4.50 out of 12
Air Quality Not available.
Flu Activity Sporadic
METAR KMWA 300315Z AUTO 00000KT 10SM SCT100 22/20 A2989 RMK AO2

More Conditions Fewer Conditions

10-Day Weather Forecast

×

Almanac

Astronomy

Jun. 29, 2015 Rise Set
Actual Time
Civil Twilight
Nautical Twilight
Astronomical Twilight
Moon
Length of Visible Light
Length of Day
Tomorrow will be .
, % of the Moon is Illuminated

Today's Extremes

State Highs State Lows

Community

WunderPhotos

Upload Photos

1,833,956 photos uploaded!

WunderBlogs® & News

Nearby

Air Quality

  Air Quality AQ Index Pollutant
Not available.

Snow Depth

Station Depth Elevation

Earthquake Activity

City Distance Mag. Time & Date
Minimum magnitude displayed is 2.5.

Coastal Water Temperatures

Place Temperature

Stations

Nearby Weather Stations

Station Location Temp. Windchill Dew Point Humidity Wind Precip. Elev Updated Type
                   
Flood Warning
Statement as of 9:24 PM CDT on June 29, 2015

The Flood Warning continues for the big Muddy river near Plumfield.
* Until late tonight.
* At 9 PM Monday the stage was 20.0 feet.
* Flood stage is 20.0 feet.
* Minor flooding is occurring.
* Forecast... the river will continue to fall to below flood stage
overnight.
* Impact... at 20.0 feet... minor flooding occurs affecting mainly
bottomland and surrounding low lying areas.


Lat... Lon 3801 8901 3792 8906 3784 8915 3778 8915
      3789 8898 3801 8895